createdAt,value
2023-04-02T00:00:17.701Z,2.73
2023-04-02T00:03:07.430Z,2.28
2023-04-02T00:05:52.695Z,2.61
2023-04-02T00:08:40.031Z,2.47
2023-04-02T00:11:35.561Z,2.20
2023-04-02T00:14:31.339Z,2.22
2023-04-02T00:17:17.022Z,2.28
2023-04-02T00:20:07.307Z,2.44
2023-04-02T00:22:54.382Z,2.57
2023-04-02T00:25:42.694Z,2.58
2023-04-02T00:28:27.781Z,2.24
2023-04-02T00:31:13.678Z,2.19
2023-04-02T00:34:01.651Z,1.90
2023-04-02T00:36:48.235Z,1.73
2023-04-02T00:39:38.930Z,1.81
2023-04-02T00:42:24.825Z,1.77
2023-04-02T00:45:21.894Z,1.77
2023-04-02T00:48:33.493Z,1.78
2023-04-02T00:51:30.781Z,2.01
2023-04-02T00:54:21.756Z,1.59
2023-04-02T00:57:15.358Z,1.99
2023-04-02T01:00:02.653Z,2.00
2023-04-02T01:03:18.898Z,2.01
2023-04-02T01:06:17.038Z,2.11
2023-04-02T01:09:36.228Z,2.00
2023-04-02T01:12:57.825Z,2.02
2023-04-02T01:16:05.330Z,1.76
2023-04-02T01:19:05.679Z,1.62
2023-04-02T01:22:13.623Z,1.55
2023-04-02T01:24:59.573Z,1.72
2023-04-02T01:28:20.312Z,1.51
2023-04-02T01:31:05.948Z,1.50
2023-04-02T01:33:51.471Z,1.57
2023-04-02T01:36:43.719Z,1.71
2023-04-02T01:39:55.196Z,1.87
2023-04-02T01:43:02.561Z,1.90
2023-04-02T01:45:48.312Z,2.18
2023-04-02T01:48:34.004Z,1.47
2023-04-02T01:51:28.778Z,1.76
2023-04-02T01:54:17.171Z,1.73
2023-04-02T01:57:02.288Z,1.76
2023-04-02T01:59:47.650Z,1.81
2023-04-02T02:02:33.236Z,1.70
2023-04-02T02:05:21.606Z,1.74
2023-04-02T02:08:23.407Z,1.87
2023-04-02T02:11:14.391Z,1.78
2023-04-02T02:14:18.811Z,1.62
2023-04-02T02:17:07.496Z,1.76
2023-04-02T02:19:56.814Z,1.50
2023-04-02T02:22:48.475Z,1.72
2023-04-02T02:25:35.451Z,1.62
2023-04-02T02:28:27.806Z,1.72
2023-04-02T02:31:19.507Z,1.53
2023-04-02T02:34:16.879Z,1.49
2023-04-02T02:37:28.577Z,1.68
2023-04-02T02:40:24.145Z,1.57
2023-04-02T02:43:13.159Z,1.45
2023-04-02T02:45:59.683Z,1.71
2023-04-02T02:48:46.396Z,1.71
2023-04-02T02:51:50.814Z,1.66
2023-04-02T02:54:50.826Z,1.70
2023-04-02T02:57:40.246Z,1.39
2023-04-02T03:00:26.473Z,0.96
2023-04-02T03:03:18.009Z,1.07
2023-04-02T03:06:10.070Z,1.11
2023-04-02T03:09:10.066Z,1.01
2023-04-02T03:12:13.608Z,0.80
2023-04-02T03:15:18.138Z,0.81
2023-04-02T03:18:32.788Z,0.74
2023-04-02T03:21:43.552Z,0.76
2023-04-02T03:24:34.614Z,0.63
2023-04-02T03:27:26.007Z,0.90
2023-04-02T03:30:35.553Z,0.65
2023-04-02T03:33:23.849Z,0.89
2023-04-02T03:36:20.166Z,0.82
2023-04-02T03:39:33.644Z,0.80
2023-04-02T03:42:25.342Z,0.52
2023-04-02T03:45:22.557Z,0.61
2023-04-02T03:48:18.576Z,0.54
2023-04-02T03:51:13.574Z,0.54
2023-04-02T03:53:59.497Z,0.44
2023-04-02T03:56:46.090Z,0.32
2023-04-02T04:00:02.701Z,0.30
2023-04-02T04:02:53.077Z,0.47
2023-04-02T04:05:52.042Z,0.20
2023-04-02T04:08:49.215Z,0.10
2023-04-02T04:11:39.223Z,0.05
2023-04-02T04:14:35.454Z,0.06
2023-04-02T04:17:56.550Z,-0.40
2023-04-02T04:20:54.936Z,-0.34
2023-04-02T04:23:49.922Z,0.04
2023-04-02T04:26:45.902Z,-0.08
2023-04-02T04:30:03.451Z,-0.05
2023-04-02T04:32:56.202Z,-0.19
2023-04-02T04:35:53.469Z,-0.31
2023-04-02T04:38:42.324Z,-0.17
2023-04-02T04:41:38.720Z,-0.25
2023-04-02T04:44:59.543Z,-0.29
2023-04-02T04:47:55.856Z,-0.34
2023-04-02T04:50:58.095Z,-0.35
2023-04-02T04:53:50.724Z,-0.40
2023-04-02T04:56:39.883Z,-0.33
2023-04-02T04:59:44.268Z,-0.36
2023-04-02T05:02:38.342Z,-0.58
2023-04-02T05:05:29.427Z,-0.51
2023-04-02T05:08:27.714Z,-0.53
2023-04-02T05:11:27.837Z,-0.54
2023-04-02T05:14:22.352Z,-0.55
2023-04-02T05:17:27.527Z,-0.61
2023-04-02T05:20:22.325Z,-0.67
2023-04-02T05:23:26.559Z,-0.89
2023-04-02T05:26:38.786Z,-0.59
2023-04-02T05:29:32.050Z,-0.86
2023-04-02T05:32:23.229Z,-0.66
2023-04-02T05:35:16.117Z,-0.54
2023-04-02T05:38:02.425Z,-0.81
2023-04-02T05:40:58.484Z,-0.53
2023-04-02T05:43:48.069Z,-0.65
2023-04-02T05:46:45.630Z,-0.78
2023-04-02T05:49:46.516Z,-0.87
2023-04-02T05:52:37.820Z,-0.73
2023-04-02T05:55:36.461Z,-0.69
2023-04-02T05:58:36.102Z,-0.74
2023-04-02T06:01:45.690Z,-0.92
2023-04-02T06:04:52.809Z,-1.51
2023-04-02T06:07:55.789Z,-1.02
2023-04-02T06:11:12.102Z,-0.97
2023-04-02T06:14:00.774Z,-1.13
2023-04-02T06:16:46.763Z,-1.23
2023-04-02T06:19:37.327Z,-1.43
2023-04-02T06:22:36.990Z,-1.10
2023-04-02T06:25:38.734Z,-1.06
2023-04-02T06:28:34.264Z,-1.18
2023-04-02T06:31:47.419Z,-1.11
2023-04-02T06:34:38.776Z,-1.03
2023-04-02T06:37:33.465Z,-1.07
2023-04-02T06:40:38.912Z,-1.08
2023-04-02T06:43:32.526Z,-1.09
2023-04-02T06:46:40.200Z,-1.19
2023-04-02T06:49:43.314Z,-1.19
2023-04-02T06:52:36.198Z,-1.26
2023-04-02T06:55:37.154Z,-1.10
2023-04-02T06:58:22.783Z,-0.93
2023-04-02T07:01:17.832Z,-0.98
2023-04-02T07:04:03.509Z,-1.39
2023-04-02T07:06:54.611Z,-1.39
2023-04-02T07:09:42.623Z,-1.37
2023-04-02T07:12:28.372Z,-1.51
2023-04-02T07:15:18.014Z,-1.44
2023-04-02T07:18:04.309Z,-1.24
2023-04-02T07:20:50.636Z,-1.19
2023-04-02T07:23:37.527Z,-1.29
2023-04-02T07:26:25.584Z,-1.23
2023-04-02T07:29:15.372Z,-1.48
2023-04-02T07:32:00.631Z,-1.31
2023-04-02T07:34:46.142Z,-1.36
2023-04-02T07:37:31.863Z,-1.36
2023-04-02T07:40:20.716Z,-1.50
2023-04-02T07:43:06.983Z,-1.92
2023-04-02T07:45:52.539Z,-1.57
2023-04-02T07:48:37.787Z,-1.70
2023-04-02T07:51:26.052Z,-1.74
2023-04-02T07:54:11.469Z,-2.23
2023-04-02T07:56:56.915Z,-1.94
2023-04-02T07:59:42.293Z,-1.74
2023-04-02T08:02:27.847Z,-1.82
2023-04-02T08:05:13.769Z,-1.55
2023-04-02T08:07:58.986Z,-1.24
2023-04-02T08:10:44.290Z,-1.58
2023-04-02T08:13:29.523Z,-1.57
2023-04-02T08:16:15.206Z,-1.60
2023-04-02T08:19:00.336Z,-1.59
2023-04-02T08:21:46.426Z,-1.73
2023-04-02T08:24:31.527Z,-1.68
2023-04-02T08:27:16.778Z,-1.68
2023-04-02T08:30:02.344Z,-1.61
2023-04-02T08:32:47.923Z,-1.69
2023-04-02T08:35:34.439Z,-1.64
2023-04-02T08:38:21.384Z,-1.65
2023-04-02T08:41:07.235Z,-1.59
2023-04-02T08:44:18.440Z,-1.83
2023-04-02T08:47:06.441Z,-1.68
2023-04-02T08:50:00.980Z,-1.74
2023-04-02T08:52:46.474Z,-2.16
2023-04-02T08:55:38.977Z,-1.78
2023-04-02T08:58:38.662Z,-1.86
2023-04-02T09:01:40.295Z,-1.83
2023-04-02T09:04:26.099Z,-2.06
2023-04-02T09:07:16.295Z,-2.16
2023-04-02T09:10:02.075Z,-2.07
2023-04-02T09:12:52.054Z,-1.89
2023-04-02T09:15:37.719Z,-1.97
2023-04-02T09:18:23.298Z,-2.07
2023-04-02T09:21:23.584Z,-2.10
2023-04-02T09:24:11.833Z,-1.99
2023-04-02T09:26:57.050Z,-2.05
2023-04-02T09:29:47.828Z,-2.44
2023-04-02T09:32:48.373Z,-1.89
2023-04-02T09:35:36.794Z,-1.81
2023-04-02T09:38:23.753Z,-2.27
2023-04-02T09:41:20.585Z,-1.95
2023-04-02T09:44:27.303Z,-1.94
2023-04-02T09:47:25.508Z,-1.79
2023-04-02T09:50:34.687Z,-1.99
2023-04-02T09:53:33.233Z,-1.87
2023-04-02T09:56:23.081Z,-1.97
2023-04-02T09:59:19.815Z,-1.86
2023-04-02T10:02:25.175Z,-2.52
2023-04-02T10:05:30.044Z,-1.78
2023-04-02T10:08:27.675Z,-1.68
2023-04-02T10:11:21.686Z,-1.65
2023-04-02T10:14:18.040Z,-1.74
2023-04-02T10:17:17.568Z,-1.65
2023-04-02T10:20:08.814Z,-1.68
2023-04-02T10:22:54.173Z,-1.58
2023-04-02T10:25:45.993Z,-1.70
2023-04-02T10:28:53.041Z,-1.72
2023-04-02T10:31:50.900Z,-1.64
2023-04-02T10:34:43.978Z,-1.28
2023-04-02T10:37:56.848Z,-1.43
2023-04-02T10:40:44.913Z,-1.43
2023-04-02T10:43:36.322Z,-1.36
2023-04-02T10:46:42.548Z,-1.39
2023-04-02T10:49:48.215Z,-1.17
2023-04-02T10:52:45.202Z,-1.32
2023-04-02T10:55:33.985Z,-1.51
2023-04-02T10:58:28.941Z,-1.18
2023-04-02T11:01:24.140Z,-1.25
2023-04-02T11:04:27.471Z,-1.47
2023-04-02T11:07:19.174Z,-1.38
2023-04-02T11:10:06.277Z,-1.54
2023-04-02T11:13:26.365Z,-1.39
2023-04-02T11:16:13.276Z,-1.39
2023-04-02T11:19:24.448Z,-1.16
2023-04-02T11:22:24.083Z,-1.12
2023-04-02T11:25:21.919Z,-1.36
2023-04-02T11:28:28.252Z,-1.24
2023-04-02T11:31:20.842Z,-1.16
2023-04-02T11:34:06.445Z,-0.99
2023-04-02T11:36:56.386Z,-1.08
2023-04-02T11:39:54.868Z,-1.18
2023-04-02T11:42:48.624Z,-1.17
2023-04-02T11:45:52.646Z,-1.08
2023-04-02T11:48:39.219Z,-1.06
2023-04-02T11:51:24.432Z,-1.00
2023-04-02T11:54:26.345Z,-0.97
2023-04-02T11:57:26.289Z,-0.89
2023-04-02T12:00:40.435Z,-0.85
2023-04-02T12:03:44.280Z,-0.71
2023-04-02T12:06:50.829Z,-0.77
2023-04-02T12:09:54.646Z,-0.63
2023-04-02T12:12:40.412Z,-0.53
2023-04-02T12:15:34.843Z,-0.36
2023-04-02T12:18:24.296Z,-0.22
2023-04-02T12:21:15.936Z,-0.36
2023-04-02T12:24:03.549Z,-0.55
2023-04-02T12:26:49.464Z,-0.33
2023-04-02T12:29:34.634Z,-0.44
2023-04-02T12:32:30.610Z,-0.45
2023-04-02T12:35:32.604Z,-0.51
2023-04-02T12:38:29.549Z,-0.47
2023-04-02T12:41:32.990Z,-0.46
2023-04-02T12:44:20.764Z,-0.50
2023-04-02T12:47:06.278Z,-0.50
2023-04-02T12:49:52.540Z,-0.95
2023-04-02T12:52:45.585Z,-0.79
2023-04-02T12:55:30.793Z,-0.22
2023-04-02T12:58:39.910Z,-0.17
2023-04-02T13:01:27.696Z,-0.06
2023-04-02T13:04:13.445Z,0.02
2023-04-02T13:06:58.717Z,0.11
2023-04-02T13:09:55.599Z,0.12
2023-04-02T13:12:41.466Z,0.16
2023-04-02T13:15:32.446Z,0.24
2023-04-02T13:18:20.501Z,0.43
2023-04-02T13:21:28.547Z,0.41
2023-04-02T13:24:36.134Z,0.31
2023-04-02T13:27:21.709Z,0.11
2023-04-02T13:30:20.030Z,-0.28
2023-04-02T13:33:05.654Z,-0.01
2023-04-02T13:35:51.011Z,-0.06
2023-04-02T13:38:36.215Z,0.12
2023-04-02T13:41:23.990Z,0.17
2023-04-02T13:44:20.542Z,0.37
2023-04-02T13:47:05.716Z,-0.12
2023-04-02T13:49:51.176Z,0.39
2023-04-02T13:52:36.272Z,0.45
2023-04-02T13:55:24.446Z,0.57
2023-04-02T13:58:10.368Z,0.47
2023-04-02T14:00:55.914Z,0.48
2023-04-02T14:03:41.546Z,0.43
2023-04-02T14:06:32.854Z,0.40
2023-04-02T14:09:29.757Z,0.30
2023-04-02T14:12:21.324Z,0.02
2023-04-02T14:15:43.362Z,0.08
2023-04-02T14:19:18.101Z,0.24
2023-04-02T14:22:49.074Z,0.31
2023-04-02T14:26:12.108Z,0.17
2023-04-02T14:29:11.334Z,0.28
2023-04-02T14:32:23.197Z,0.40
2023-04-02T14:35:14.459Z,0.49
2023-04-02T14:38:13.856Z,0.36
2023-04-02T14:41:17.581Z,0.47
2023-04-02T14:44:07.564Z,0.52
2023-04-02T14:47:02.041Z,0.60
2023-04-02T14:49:50.531Z,0.73
2023-04-02T14:52:37.537Z,0.71
2023-04-02T14:55:39.430Z,0.69
2023-04-02T14:58:34.713Z,0.70
2023-04-02T15:01:32.209Z,0.86
2023-04-02T15:04:23.101Z,0.98
2023-04-02T15:07:22.141Z,0.88
2023-04-02T15:10:20.481Z,0.91
2023-04-02T15:13:12.242Z,0.75
2023-04-02T15:16:16.468Z,0.72
2023-04-02T15:19:04.410Z,0.79
2023-04-02T15:22:26.678Z,0.95
2023-04-02T15:25:37.473Z,0.87
2023-04-02T15:28:28.358Z,0.87
2023-04-02T15:31:14.666Z,0.61
2023-04-02T15:34:08.673Z,0.62
2023-04-02T15:37:28.259Z,0.62
2023-04-02T15:40:35.705Z,0.63
2023-04-02T15:43:24.478Z,0.71
2023-04-02T15:46:15.812Z,0.77
2023-04-02T15:49:19.222Z,0.80
2023-04-02T15:52:29.702Z,0.83
2023-04-02T15:55:38.313Z,0.74
2023-04-02T15:58:42.511Z,0.75
2023-04-02T16:01:56.963Z,0.85
2023-04-02T16:04:46.179Z,0.78
2023-04-02T16:07:57.294Z,0.83
2023-04-02T16:10:43.385Z,0.66
2023-04-02T16:13:32.954Z,0.85
2023-04-02T16:16:25.962Z,1.09
2023-04-02T16:19:41.734Z,1.13
2023-04-02T16:22:30.281Z,0.79
2023-04-02T16:25:19.849Z,1.47
2023-04-02T16:28:43.674Z,1.59
2023-04-02T16:31:37.623Z,1.73
2023-04-02T16:35:31.147Z,1.80
2023-04-02T16:38:51.699Z,1.82
2023-04-02T16:42:16.790Z,1.73
2023-04-02T16:45:19.304Z,1.55
2023-04-02T16:48:18.514Z,1.40
2023-04-02T16:51:27.101Z,1.38
2023-04-02T16:54:30.481Z,1.29
2023-04-02T16:57:23.911Z,1.30
2023-04-02T17:00:24.344Z,1.43
2023-04-02T17:03:21.676Z,1.66
2023-04-02T17:06:18.819Z,1.69
2023-04-02T17:09:22.612Z,1.04
2023-04-02T17:12:39.736Z,1.57
2023-04-02T17:15:34.731Z,1.71
2023-04-02T17:18:21.765Z,1.73
2023-04-02T17:21:10.429Z,1.67
2023-04-02T17:24:02.314Z,1.66
2023-04-02T17:26:53.258Z,1.26
2023-04-02T17:29:43.087Z,1.30
2023-04-02T17:32:33.485Z,1.81
2023-04-02T17:35:32.973Z,1.73
2023-04-02T17:38:35.379Z,1.61
2023-04-02T17:41:39.042Z,1.85
2023-04-02T17:44:42.695Z,1.95
2023-04-02T17:47:46.411Z,1.56
2023-04-02T17:50:37.869Z,1.89
2023-04-02T17:53:34.453Z,1.90
2023-04-02T17:56:48.726Z,1.97
2023-04-02T17:59:42.792Z,1.99
2023-04-02T18:02:46.577Z,2.03
2023-04-02T18:05:54.294Z,1.94
2023-04-02T18:08:42.497Z,1.63
2023-04-02T18:11:43.334Z,1.41
2023-04-02T18:14:46.695Z,1.69
2023-04-02T18:17:53.550Z,1.81
2023-04-02T18:21:12.929Z,2.07
2023-04-02T18:24:37.330Z,2.21
2023-04-02T18:27:37.625Z,2.18
2023-04-02T18:30:38.206Z,2.08
2023-04-02T18:33:43.439Z,2.05
2023-04-02T18:36:57.446Z,1.68
2023-04-02T18:39:45.727Z,1.40
2023-04-02T18:42:55.826Z,1.63
2023-04-02T18:45:59.498Z,1.68
2023-04-02T18:48:54.292Z,1.66
2023-04-02T18:51:40.299Z,1.67
2023-04-02T18:54:33.920Z,1.58
2023-04-02T18:57:28.731Z,1.44
2023-04-02T19:00:41.178Z,1.26
2023-04-02T19:03:32.704Z,1.17
2023-04-02T19:06:28.502Z,1.29
2023-04-02T19:09:13.978Z,1.37
2023-04-02T19:11:59.165Z,1.41
2023-04-02T19:14:45.203Z,1.47
2023-04-02T19:17:41.361Z,1.49
2023-04-02T19:20:37.585Z,1.47
2023-04-02T19:23:49.174Z,1.48
2023-04-02T19:26:49.194Z,1.36
2023-04-02T19:29:56.285Z,1.31
2023-04-02T19:33:16.548Z,1.26
2023-04-02T19:36:07.992Z,1.25
2023-04-02T19:38:56.392Z,1.19
2023-04-02T19:41:46.712Z,1.10
2023-04-02T19:44:31.973Z,0.85
2023-04-02T19:47:18.733Z,0.93
2023-04-02T19:50:04.178Z,0.95
2023-04-02T19:52:49.366Z,0.92
2023-04-02T19:55:35.207Z,0.95
2023-04-02T19:58:28.188Z,1.16
2023-04-02T20:01:14.077Z,0.72
2023-04-02T20:03:59.272Z,1.11
2023-04-02T20:06:45.150Z,0.65
2023-04-02T20:09:30.358Z,0.96
2023-04-02T20:12:15.591Z,0.91
2023-04-02T20:15:01.146Z,0.94
2023-04-02T20:17:46.305Z,0.45
2023-04-02T20:20:32.001Z,0.92
2023-04-02T20:23:17.860Z,1.01
2023-04-02T20:26:04.548Z,0.76
2023-04-02T20:28:50.064Z,0.67
2023-04-02T20:31:35.401Z,0.71
2023-04-02T20:34:21.265Z,0.73
2023-04-02T20:37:06.272Z,0.45
2023-04-02T20:39:51.634Z,0.56
2023-04-02T20:42:37.033Z,0.65
2023-04-02T20:45:22.331Z,0.66
2023-04-02T20:48:07.852Z,0.62
2023-04-02T20:50:53.645Z,0.43
2023-04-02T20:53:38.755Z,0.54
2023-04-02T20:56:24.331Z,0.49
2023-04-02T20:59:09.687Z,0.40
2023-04-02T21:01:55.030Z,0.65
2023-04-02T21:04:40.004Z,0.67
2023-04-02T21:07:25.634Z,0.54
2023-04-02T21:10:10.865Z,0.52
2023-04-02T21:12:56.684Z,0.40
2023-04-02T21:15:41.869Z,0.42
2023-04-02T21:18:26.853Z,0.46
2023-04-02T21:21:13.896Z,0.18
2023-04-02T21:24:04.859Z,0.35
2023-04-02T21:26:50.363Z,0.25
2023-04-02T21:29:35.914Z,0.13
2023-04-02T21:32:22.059Z,0.12
2023-04-02T21:35:08.165Z,0.21
2023-04-02T21:37:53.331Z,0.21
2023-04-02T21:40:38.526Z,0.12
2023-04-02T21:43:23.664Z,0.07
2023-04-02T21:46:10.036Z,0.10
2023-04-02T21:48:58.865Z,0.27
2023-04-02T21:51:45.778Z,0.10
2023-04-02T21:54:30.990Z,-0.10
2023-04-02T21:57:17.859Z,-0.14
2023-04-02T22:00:04.302Z,-0.33
2023-04-02T22:02:50.223Z,-0.33
2023-04-02T22:05:35.936Z,-0.27
2023-04-02T22:08:21.783Z,-0.31
2023-04-02T22:11:09.888Z,-0.32
2023-04-02T22:13:55.949Z,-0.44
2023-04-02T22:16:41.566Z,-0.30
2023-04-02T22:19:27.061Z,-0.14
2023-04-02T22:22:12.421Z,-0.40
2023-04-02T22:24:57.844Z,-0.46
2023-04-02T22:27:42.952Z,-0.45
2023-04-02T22:30:28.234Z,-0.60
2023-04-02T22:33:13.357Z,-0.58
2023-04-02T22:35:59.024Z,-0.69
2023-04-02T22:38:44.792Z,-0.71
2023-04-02T22:41:30.043Z,-0.97
2023-04-02T22:44:15.556Z,-0.72
2023-04-02T22:47:00.827Z,-0.77
2023-04-02T22:49:46.332Z,-0.83
2023-04-02T22:52:31.619Z,-1.25
2023-04-02T22:55:16.654Z,-0.81
2023-04-02T22:58:02.360Z,-1.03
2023-04-02T23:00:48.718Z,-0.87
2023-04-02T23:03:34.443Z,-1.05
2023-04-02T23:06:19.782Z,-0.99
2023-04-02T23:09:05.178Z,-1.19
2023-04-02T23:11:50.754Z,-1.21
2023-04-02T23:14:36.113Z,-1.13
2023-04-02T23:17:21.244Z,-1.19
2023-04-02T23:20:08.134Z,-1.02
2023-04-02T23:22:53.499Z,-1.01
2023-04-02T23:25:39.081Z,-0.94
2023-04-02T23:28:24.094Z,-0.89
2023-04-02T23:31:14.259Z,-1.17
2023-04-02T23:33:59.860Z,-0.93
2023-04-02T23:36:45.082Z,-0.96
2023-04-02T23:39:30.184Z,-1.03
2023-04-02T23:42:15.437Z,-1.16
2023-04-02T23:45:00.843Z,-1.28
2023-04-02T23:47:46.176Z,-1.17
2023-04-02T23:50:31.500Z,-1.09
2023-04-02T23:53:16.733Z,-1.08
2023-04-02T23:56:01.938Z,-1.24
2023-04-02T23:58:47.527Z,-1.37
